createdAt,value
2022-12-20T00:01:35.218Z,-4.14
2022-12-20T00:04:05.859Z,-4.25
2022-12-20T00:06:36.771Z,-4.23
2022-12-20T00:09:06.421Z,-4.17
2022-12-20T00:11:33.777Z,-4.31
2022-12-20T00:14:00.684Z,-4.21
2022-12-20T00:16:29.286Z,-4.24
2022-12-20T00:19:02.301Z,-4.36
2022-12-20T00:21:30.691Z,-4.42
2022-12-20T00:23:58.358Z,-4.22
2022-12-20T00:26:29.026Z,-4.32
2022-12-20T00:28:57.054Z,-4.41
2022-12-20T00:31:25.706Z,-4.47
2022-12-20T00:33:55.309Z,-4.27
2022-12-20T00:36:24.064Z,-4.19
2022-12-20T00:38:54.294Z,-4.29
2022-12-20T00:41:28.179Z,-4.24
2022-12-20T00:43:55.591Z,-4.12
2022-12-20T00:46:24.885Z,-4.27
2022-12-20T00:48:54.522Z,-4.10
2022-12-20T00:51:25.317Z,-4.14
2022-12-20T00:53:53.304Z,-4.27
2022-12-20T00:56:20.741Z,-4.15
2022-12-20T00:58:48.876Z,-4.08
2022-12-20T01:01:27.943Z,-4.30
2022-12-20T01:03:55.275Z,-4.42
2022-12-20T01:06:24.263Z,-4.26
2022-12-20T01:08:52.831Z,-4.30
2022-12-20T01:11:24.012Z,-4.37
2022-12-20T01:13:56.241Z,-4.59
2022-12-20T01:16:33.492Z,-4.67
2022-12-20T01:19:01.489Z,-4.62
2022-12-20T01:21:29.499Z,-4.75
2022-12-20T01:23:56.840Z,-4.74
2022-12-20T01:26:26.703Z,-4.61
2022-12-20T01:28:56.384Z,-4.62
2022-12-20T01:31:24.761Z,-4.62
2022-12-20T01:33:52.716Z,-4.55
2022-12-20T01:36:29.545Z,-4.59
2022-12-20T01:39:01.235Z,-4.66
2022-12-20T01:41:30.945Z,-4.58
2022-12-20T01:44:01.561Z,-4.69
2022-12-20T01:46:39.723Z,-4.56
2022-12-20T01:49:26.828Z,-4.69
2022-12-20T01:52:03.525Z,-4.63
2022-12-20T01:54:45.207Z,-4.69
2022-12-20T01:57:21.320Z,-4.65
2022-12-20T01:59:51.045Z,-4.56
2022-12-20T02:02:18.794Z,-4.69
2022-12-20T02:04:45.987Z,-4.71
2022-12-20T02:07:17.578Z,-4.56
2022-12-20T02:09:45.305Z,-4.62
2022-12-20T02:12:26.735Z,-4.62
2022-12-20T02:15:30.714Z,-4.56
2022-12-20T02:18:11.022Z,-4.55
2022-12-20T02:21:07.263Z,-4.63
2022-12-20T02:24:12.143Z,-4.79
2022-12-20T02:27:07.822Z,-4.89
2022-12-20T02:29:43.623Z,-5.00
2022-12-20T02:32:24.829Z,-4.99
2022-12-20T02:34:52.979Z,-4.97
2022-12-20T02:37:20.380Z,-5.15
2022-12-20T02:39:48.838Z,-5.18
2022-12-20T02:42:22.565Z,-5.18
2022-12-20T02:45:15.373Z,-5.38
2022-12-20T02:47:57.781Z,-5.28
2022-12-20T02:50:31.929Z,-5.44
2022-12-20T02:53:00.668Z,-5.33
2022-12-20T02:55:50.998Z,-5.45
2022-12-20T02:58:39.248Z,-5.26
2022-12-20T03:01:12.232Z,-5.30
2022-12-20T03:03:40.137Z,-5.36
2022-12-20T03:06:07.870Z,-5.55
2022-12-20T03:08:35.828Z,-5.44
2022-12-20T03:11:03.141Z,-5.44
2022-12-20T03:13:32.108Z,-5.45
2022-12-20T03:16:03.315Z,-5.54
2022-12-20T03:18:30.258Z,-5.51
2022-12-20T03:20:57.726Z,-5.67
2022-12-20T03:23:25.436Z,-5.72
2022-12-20T03:25:52.762Z,-5.62
2022-12-20T03:28:40.018Z,-5.58
2022-12-20T03:31:09.368Z,-5.68
2022-12-20T03:33:44.503Z,-5.66
2022-12-20T03:36:12.088Z,-5.60
2022-12-20T03:38:39.497Z,-5.74
2022-12-20T03:41:08.278Z,-5.88
2022-12-20T03:43:35.534Z,-5.75
2022-12-20T03:46:03.868Z,-5.76
2022-12-20T03:48:35.082Z,-5.77
2022-12-20T03:51:02.253Z,-5.89
2022-12-20T03:53:29.948Z,-5.85
2022-12-20T03:55:57.539Z,-5.93
2022-12-20T03:58:25.093Z,-6.09
2022-12-20T04:00:52.086Z,-6.07
2022-12-20T04:03:55.304Z,-6.18
2022-12-20T04:06:23.576Z,-6.44
2022-12-20T04:08:51.538Z,-6.27
2022-12-20T04:11:29.115Z,-6.44
2022-12-20T04:14:04.907Z,-6.40
2022-12-20T04:16:34.171Z,-6.44
2022-12-20T04:19:02.228Z,-6.33
2022-12-20T04:21:36.115Z,-6.32
2022-12-20T04:24:05.367Z,-6.40
2022-12-20T04:26:44.043Z,-6.37
2022-12-20T04:29:12.484Z,-6.48
2022-12-20T04:31:42.461Z,-6.49
2022-12-20T04:34:10.100Z,-6.29
2022-12-20T04:36:38.128Z,-6.33
2022-12-20T04:39:14.475Z,-6.37
2022-12-20T04:42:00.563Z,-6.42
2022-12-20T04:44:28.591Z,-6.48
2022-12-20T04:46:55.929Z,-6.51
2022-12-20T04:49:23.312Z,-6.68
2022-12-20T04:51:50.256Z,-6.51
2022-12-20T04:54:18.623Z,-6.47
2022-12-20T04:56:57.800Z,-6.56
2022-12-20T04:59:25.145Z,-6.68
2022-12-20T05:01:54.461Z,-6.65
2022-12-20T05:04:50.577Z,-6.61
2022-12-20T05:07:17.933Z,-6.75
2022-12-20T05:09:51.295Z,-6.78
2022-12-20T05:12:18.754Z,-6.81
2022-12-20T05:14:46.287Z,-6.76
2022-12-20T05:17:16.336Z,-6.77
2022-12-20T05:19:44.079Z,-6.65
2022-12-20T05:22:31.578Z,-6.75
2022-12-20T05:25:30.365Z,-6.75
2022-12-20T05:28:01.246Z,-6.63
2022-12-20T05:30:32.401Z,-6.71
2022-12-20T05:32:59.477Z,-6.59
2022-12-20T05:35:27.450Z,-6.70
2022-12-20T05:38:02.615Z,-6.53
2022-12-20T05:40:31.979Z,-6.52
2022-12-20T05:42:59.691Z,-6.75
2022-12-20T05:45:35.844Z,-6.64
2022-12-20T05:48:08.789Z,-6.59
2022-12-20T05:50:39.737Z,-6.64
2022-12-20T05:53:32.686Z,-6.73
2022-12-20T05:56:04.092Z,-6.66
2022-12-20T05:58:34.526Z,-6.61
2022-12-20T06:01:06.353Z,-6.78
2022-12-20T06:03:40.974Z,-6.75
2022-12-20T06:06:15.419Z,-6.61
2022-12-20T06:08:45.837Z,-6.75
2022-12-20T06:11:36.337Z,-6.62
2022-12-20T06:14:09.844Z,-6.73
2022-12-20T06:16:40.653Z,-6.74
2022-12-20T06:19:12.538Z,-6.68
2022-12-20T06:21:41.811Z,-6.60
2022-12-20T06:24:11.747Z,-6.72
2022-12-20T06:26:42.514Z,-6.64
2022-12-20T06:29:14.399Z,-6.80
2022-12-20T06:31:47.885Z,-6.74
2022-12-20T06:34:16.187Z,-6.72
2022-12-20T06:36:43.908Z,-6.83
2022-12-20T06:39:17.451Z,-6.87
2022-12-20T06:42:00.118Z,-6.93
2022-12-20T06:44:27.309Z,-6.79
2022-12-20T06:46:54.503Z,-6.95
2022-12-20T06:49:22.621Z,-6.91
2022-12-20T06:51:50.479Z,-6.95
2022-12-20T06:54:21.845Z,-6.88
2022-12-20T06:56:48.867Z,-6.94
2022-12-20T06:59:17.168Z,-6.86
2022-12-20T07:01:44.984Z,-6.95
2022-12-20T07:04:12.154Z,-6.86
2022-12-20T07:06:39.202Z,-6.88
2022-12-20T07:09:06.345Z,-7.04
2022-12-20T07:11:33.664Z,-6.92
2022-12-20T07:14:00.767Z,-6.97
2022-12-20T07:16:27.741Z,-6.92
2022-12-20T07:18:55.573Z,-7.14
2022-12-20T07:21:22.626Z,-7.09
2022-12-20T07:23:49.634Z,-7.04
2022-12-20T07:26:16.624Z,-7.04
2022-12-20T07:28:43.864Z,-7.01
2022-12-20T07:31:11.112Z,-7.08
2022-12-20T07:33:39.101Z,-7.06
2022-12-20T07:36:11.451Z,-7.12
2022-12-20T07:38:39.123Z,-7.17
2022-12-20T07:41:10.538Z,-7.08
2022-12-20T07:43:38.146Z,-7.02
2022-12-20T07:46:06.683Z,-7.24
2022-12-20T07:48:34.499Z,-7.16
2022-12-20T07:51:10.392Z,-7.08
2022-12-20T07:53:44.567Z,-7.21
2022-12-20T07:56:13.890Z,-6.98
2022-12-20T07:58:43.394Z,-7.09
2022-12-20T08:01:13.049Z,-6.92
2022-12-20T08:03:51.076Z,-6.93
2022-12-20T08:06:19.167Z,-7.10
2022-12-20T08:08:51.550Z,-6.93
2022-12-20T08:11:20.848Z,-6.99
2022-12-20T08:13:55.657Z,-6.95
2022-12-20T08:16:24.941Z,-6.91
2022-12-20T08:18:52.248Z,-6.95
2022-12-20T08:21:19.473Z,-6.73
2022-12-20T08:23:46.361Z,-6.70
2022-12-20T08:26:13.586Z,-6.78
2022-12-20T08:28:40.686Z,-6.71
2022-12-20T08:31:08.974Z,-6.75
2022-12-20T08:33:38.614Z,-6.74
2022-12-20T08:36:10.867Z,-6.77
2022-12-20T08:38:38.209Z,-6.77
2022-12-20T08:41:11.132Z,-6.88
2022-12-20T08:43:39.401Z,-6.81
2022-12-20T08:46:08.166Z,-6.82
2022-12-20T08:48:36.068Z,-6.68
2022-12-20T08:51:09.501Z,-6.89
2022-12-20T08:53:37.540Z,-6.77
2022-12-20T08:56:18.080Z,-6.76
2022-12-20T08:58:45.812Z,-6.87
2022-12-20T09:01:15.654Z,-6.84
2022-12-20T09:03:43.206Z,-6.75
2022-12-20T09:06:13.586Z,-6.84
2022-12-20T09:08:41.213Z,-6.79
2022-12-20T09:11:12.238Z,-6.77
2022-12-20T09:13:43.969Z,-6.86
2022-12-20T09:16:17.278Z,-6.78
2022-12-20T09:18:44.457Z,-6.57
2022-12-20T09:21:11.629Z,-6.53
2022-12-20T09:23:38.791Z,-6.70
2022-12-20T09:26:10.768Z,-6.60
2022-12-20T09:28:38.111Z,-6.75
2022-12-20T09:31:07.465Z,-6.76
2022-12-20T09:33:35.568Z,-6.74
2022-12-20T09:36:03.967Z,-6.63
2022-12-20T09:38:32.465Z,-6.72
2022-12-20T09:41:03.617Z,-6.74
2022-12-20T09:43:32.127Z,-6.67
2022-12-20T09:46:01.639Z,-6.62
2022-12-20T09:48:38.150Z,-6.62
2022-12-20T09:51:18.488Z,-6.73
2022-12-20T09:54:22.971Z,-6.62
2022-12-20T09:57:19.191Z,-6.81
2022-12-20T09:59:49.830Z,-6.63
2022-12-20T10:05:46.112Z,-6.59
2022-12-20T10:08:24.778Z,-6.54
2022-12-20T10:10:59.722Z,-6.57
2022-12-20T10:13:38.956Z,-6.62
2022-12-20T10:16:33.806Z,-6.57
2022-12-20T10:19:13.041Z,-6.65
2022-12-20T10:22:04.465Z,-6.69
2022-12-20T10:24:33.310Z,-6.52
2022-12-20T10:27:13.119Z,-6.30
2022-12-20T10:29:41.054Z,-6.28
2022-12-20T10:32:19.020Z,-6.42
2022-12-20T10:35:13.367Z,-6.33
2022-12-20T10:38:09.949Z,-6.31
2022-12-20T10:41:20.569Z,-6.27
2022-12-20T10:43:51.502Z,-6.35
2022-12-20T10:46:22.042Z,-6.09
2022-12-20T10:48:49.638Z,-6.07
2022-12-20T10:51:27.675Z,-6.28
2022-12-20T10:54:04.121Z,-6.10
2022-12-20T10:56:53.907Z,-6.50
2022-12-20T10:59:21.400Z,-6.20
2022-12-20T11:01:49.769Z,-6.37
2022-12-20T11:04:29.065Z,-6.18
2022-12-20T11:06:57.217Z,-6.14
2022-12-20T11:09:33.535Z,-6.16
2022-12-20T11:12:15.761Z,-6.35
2022-12-20T11:14:47.744Z,-6.29
2022-12-20T11:17:14.748Z,-6.23
2022-12-20T11:19:56.831Z,-6.27
2022-12-20T11:22:52.149Z,-6.23
2022-12-20T11:25:25.344Z,-6.23
2022-12-20T11:28:14.240Z,-6.19
2022-12-20T11:30:54.431Z,-6.27
2022-12-20T11:33:36.664Z,-6.35
2022-12-20T11:36:03.755Z,-6.35
2022-12-20T11:38:42.739Z,-6.55
2022-12-20T11:41:45.132Z,-6.38
2022-12-20T11:44:33.192Z,-6.42
2022-12-20T11:47:57.359Z,-6.31
2022-12-20T11:50:58.913Z,-6.29
2022-12-20T11:53:32.996Z,-6.52
2022-12-20T11:56:07.000Z,-6.34
2022-12-20T11:58:46.423Z,-6.38
2022-12-20T12:01:18.184Z,-6.62
2022-12-20T12:04:11.478Z,-6.55
2022-12-20T12:06:46.466Z,-6.67
2022-12-20T12:09:16.526Z,-6.67
2022-12-20T12:12:08.875Z,-6.84
2022-12-20T12:14:54.921Z,-6.72
2022-12-20T12:17:37.101Z,-6.97
2022-12-20T12:20:34.047Z,-6.87
2022-12-20T12:23:14.586Z,-7.04
2022-12-20T12:25:41.929Z,-6.95
2022-12-20T12:28:13.143Z,-7.02
2022-12-20T12:30:46.360Z,-6.91
2022-12-20T12:33:38.070Z,-6.88
2022-12-20T12:36:42.744Z,-6.90
2022-12-20T12:39:22.485Z,-6.93
2022-12-20T12:41:52.659Z,-6.90
2022-12-20T12:44:19.608Z,-6.90
2022-12-20T12:46:48.420Z,-6.97
2022-12-20T12:49:24.579Z,-7.03
2022-12-20T12:51:56.078Z,-7.27
2022-12-20T12:54:27.388Z,-7.12
2022-12-20T12:57:06.827Z,-7.26
2022-12-20T12:59:33.908Z,-7.13
2022-12-20T13:02:07.068Z,-7.15
2022-12-20T13:05:25.887Z,-7.14
2022-12-20T13:07:53.857Z,-7.35
2022-12-20T13:10:25.006Z,-7.19
2022-12-20T13:12:52.918Z,-7.21
2022-12-20T13:15:22.859Z,-7.22
2022-12-20T13:17:58.938Z,-7.31
2022-12-20T13:20:29.091Z,-7.25
2022-12-20T13:23:18.012Z,-7.50
2022-12-20T13:25:49.638Z,-7.41
2022-12-20T13:28:19.783Z,-7.22
2022-12-20T13:30:53.299Z,-7.40
2022-12-20T13:33:24.648Z,-7.28
2022-12-20T13:36:03.980Z,-7.32
2022-12-20T13:38:43.371Z,-7.32
2022-12-20T13:41:34.828Z,-7.30
2022-12-20T13:44:14.870Z,-7.27
2022-12-20T13:46:54.160Z,-7.26
2022-12-20T13:49:28.636Z,-7.28
2022-12-20T13:52:25.518Z,-7.22
2022-12-20T13:54:55.929Z,-7.37
2022-12-20T13:57:33.169Z,-7.34
2022-12-20T14:00:07.263Z,-7.19
2022-12-20T14:02:41.219Z,-7.14
2022-12-20T14:05:18.188Z,-7.32
2022-12-20T14:07:56.105Z,-7.08
2022-12-20T14:10:25.133Z,-7.10
2022-12-20T14:12:53.658Z,-7.11
2022-12-20T14:15:26.279Z,-7.04
2022-12-20T14:17:53.824Z,-7.29
2022-12-20T14:20:33.853Z,-7.16
2022-12-20T14:23:06.513Z,-7.22
2022-12-20T14:25:59.502Z,-7.32
2022-12-20T14:28:31.826Z,-7.35
2022-12-20T14:31:28.353Z,-7.35
2022-12-20T14:34:29.735Z,-7.58
2022-12-20T14:37:29.172Z,-7.41
2022-12-20T14:39:59.324Z,-7.42
2022-12-20T14:42:33.008Z,-7.58
2022-12-20T14:45:09.395Z,-7.51
2022-12-20T14:47:39.159Z,-7.54
2022-12-20T14:50:27.203Z,-7.68
2022-12-20T14:52:54.483Z,-7.63
2022-12-20T14:55:28.056Z,-7.59
2022-12-20T14:57:56.958Z,-7.50
2022-12-20T15:00:30.643Z,-7.73
2022-12-20T15:03:23.786Z,-7.64
2022-12-20T15:05:56.240Z,-7.81
2022-12-20T15:08:23.687Z,-7.73
2022-12-20T15:10:57.772Z,-7.85
2022-12-20T15:13:51.705Z,-7.87
2022-12-20T15:16:29.631Z,-7.74
2022-12-20T15:18:59.255Z,-7.79
2022-12-20T15:21:36.248Z,-7.89
2022-12-20T15:24:10.395Z,-7.85
2022-12-20T15:26:40.149Z,-7.93
2022-12-20T15:29:07.503Z,-7.83
2022-12-20T15:31:43.456Z,-7.94
2022-12-20T15:34:18.597Z,-7.77
2022-12-20T15:36:46.924Z,-7.88
2022-12-20T15:39:14.962Z,-7.84
2022-12-20T15:41:46.558Z,-7.79
2022-12-20T15:44:21.532Z,-7.82
2022-12-20T15:46:49.125Z,-7.81
2022-12-20T15:49:26.321Z,-7.87
2022-12-20T15:51:55.908Z,-7.77
2022-12-20T15:54:30.949Z,-7.76
2022-12-20T15:57:03.187Z,-7.88
2022-12-20T15:59:59.034Z,-7.73
2022-12-20T16:02:24.898Z,-7.73
2022-12-20T16:04:53.606Z,-7.77
2022-12-20T16:07:21.025Z,-7.78
2022-12-20T16:09:48.239Z,-7.83
2022-12-20T16:12:18.574Z,-7.87
2022-12-20T16:14:45.851Z,-7.79
2022-12-20T16:17:14.411Z,-7.95
2022-12-20T16:19:46.088Z,-7.94
2022-12-20T16:22:18.166Z,-7.85
2022-12-20T16:24:46.345Z,-7.83
2022-12-20T16:27:13.938Z,-7.83
2022-12-20T16:29:41.714Z,-7.90
2022-12-20T16:32:18.506Z,-7.77
2022-12-20T16:34:46.477Z,-7.90
2022-12-20T16:37:15.487Z,-7.82
2022-12-20T16:39:43.206Z,-7.90
2022-12-20T16:42:13.395Z,-7.74
2022-12-20T16:44:43.504Z,-7.94
2022-12-20T16:47:11.577Z,-7.85
2022-12-20T16:49:44.600Z,-7.68
2022-12-20T16:52:18.110Z,-7.67
2022-12-20T16:54:45.313Z,-7.81
2022-12-20T16:57:12.474Z,-7.80
2022-12-20T16:59:39.646Z,-7.78
2022-12-20T17:02:22.982Z,-7.60
2022-12-20T17:04:51.137Z,-7.78
2022-12-20T17:07:21.030Z,-7.78
2022-12-20T17:09:55.173Z,-7.66
2022-12-20T17:12:27.627Z,-7.83
2022-12-20T17:14:56.705Z,-7.73
2022-12-20T17:17:23.924Z,-7.62
2022-12-20T17:19:50.825Z,-7.70
2022-12-20T17:25:03.217Z,-7.82
2022-12-20T17:27:30.479Z,-7.94
2022-12-20T17:29:57.386Z,-7.79
2022-12-20T17:32:25.720Z,-7.86
2022-12-20T17:34:54.082Z,-7.90
2022-12-20T17:37:21.734Z,-7.84
2022-12-20T17:39:49.288Z,-7.93
2022-12-20T17:42:17.076Z,-7.95
2022-12-20T17:44:47.546Z,-7.84
2022-12-20T17:47:14.622Z,-7.85
2022-12-20T17:49:41.605Z,-7.79
2022-12-20T17:52:15.755Z,-7.84
2022-12-20T17:54:43.288Z,-7.96
2022-12-20T17:57:17.176Z,-8.00
2022-12-20T17:59:46.759Z,-7.91
2022-12-20T18:02:25.266Z,-7.93
2022-12-20T18:04:53.520Z,-7.94
2022-12-20T18:07:20.865Z,-8.13
2022-12-20T18:09:48.975Z,-7.97
2022-12-20T18:12:16.750Z,-8.05
2022-12-20T18:14:43.899Z,-8.15
2022-12-20T18:17:11.284Z,-7.96
2022-12-20T18:19:38.737Z,-7.99
2022-12-20T18:22:06.734Z,-8.19
2022-12-20T18:24:33.896Z,-8.06
2022-12-20T18:27:01.682Z,-8.18
2022-12-20T18:29:29.421Z,-8.01
2022-12-20T18:31:56.617Z,-8.19
2022-12-20T18:34:23.984Z,-8.04
2022-12-20T18:36:51.099Z,-8.22
2022-12-20T18:39:18.635Z,-8.21
2022-12-20T18:41:45.956Z,-8.07
2022-12-20T18:44:13.035Z,-8.28
2022-12-20T18:46:41.013Z,-8.12
2022-12-20T18:49:09.504Z,-8.10
2022-12-20T18:51:37.082Z,-8.05
2022-12-20T18:54:06.113Z,-7.98
2022-12-20T18:56:36.693Z,-8.10
2022-12-20T18:59:10.911Z,-7.99
2022-12-20T19:01:40.854Z,-7.93
2022-12-20T19:04:08.723Z,-7.91
2022-12-20T19:06:37.509Z,-7.88
2022-12-20T19:09:08.502Z,-8.00
2022-12-20T19:11:35.977Z,-7.99
2022-12-20T19:14:03.885Z,-7.89
2022-12-20T19:16:32.997Z,-7.85
2022-12-20T19:19:02.435Z,-7.88
2022-12-20T19:21:31.969Z,-8.04
2022-12-20T19:24:02.364Z,-8.01
2022-12-20T19:26:30.035Z,-7.89
2022-12-20T19:28:57.679Z,-7.87
2022-12-20T19:31:32.947Z,-7.90
2022-12-20T19:34:10.458Z,-7.87
2022-12-20T19:36:39.353Z,-7.84
2022-12-20T19:39:12.487Z,-7.86
2022-12-20T19:41:40.750Z,-7.96
2022-12-20T19:44:09.048Z,-7.99
2022-12-20T19:46:36.500Z,-7.85
2022-12-20T19:49:04.277Z,-7.83
2022-12-20T19:51:32.137Z,-7.80
2022-12-20T19:54:00.080Z,-7.87
2022-12-20T19:56:36.355Z,-7.85
2022-12-20T19:59:04.010Z,-7.76
2022-12-20T20:01:31.220Z,-7.77
2022-12-20T20:04:00.581Z,-7.84
2022-12-20T20:06:28.769Z,-7.66
2022-12-20T20:08:57.848Z,-7.60
2022-12-20T20:11:25.271Z,-7.75
2022-12-20T20:13:52.836Z,-7.66
2022-12-20T20:16:22.756Z,-7.51
2022-12-20T20:18:50.667Z,-7.59
2022-12-20T20:21:22.670Z,-7.49
2022-12-20T20:23:54.890Z,-7.42
2022-12-20T20:26:24.933Z,-7.38
2022-12-20T20:28:52.723Z,-7.38
2022-12-20T20:31:20.964Z,-7.53
2022-12-20T20:33:48.538Z,-7.48
2022-12-20T20:36:18.237Z,-7.52
2022-12-20T20:38:46.141Z,-7.48
2022-12-20T20:41:14.329Z,-7.49
2022-12-20T20:43:42.195Z,-7.30
2022-12-20T20:46:11.820Z,-7.23
2022-12-20T20:48:39.909Z,-7.20
2022-12-20T20:51:07.356Z,-7.12
2022-12-20T20:53:35.546Z,-7.19
2022-12-20T20:56:03.967Z,-7.11
2022-12-20T20:58:31.885Z,-7.09
2022-12-20T21:01:01.166Z,-7.09
2022-12-20T21:03:30.466Z,-7.03
2022-12-20T21:08:45.591Z,-6.80
2022-12-20T21:11:13.141Z,-6.79
2022-12-20T21:13:40.507Z,-6.82
2022-12-20T21:16:20.424Z,-6.72
2022-12-20T21:18:58.888Z,-6.73
2022-12-20T21:21:27.079Z,-6.72
2022-12-20T21:23:55.212Z,-6.84
2022-12-20T21:26:25.233Z,-6.80
2022-12-20T21:28:56.981Z,-6.73
2022-12-20T21:31:24.228Z,-6.75
2022-12-20T21:33:51.322Z,-6.70
2022-12-20T21:36:19.054Z,-6.74
2022-12-20T21:38:50.962Z,-6.69
2022-12-20T21:41:19.383Z,-6.65
2022-12-20T21:43:46.910Z,-6.64
2022-12-20T21:46:13.990Z,-6.80
2022-12-20T21:48:43.223Z,-6.60
2022-12-20T21:51:11.796Z,-6.57
2022-12-20T21:53:43.560Z,-6.73
2022-12-20T21:56:11.109Z,-6.72
2022-12-20T21:58:57.746Z,-6.67
2022-12-20T22:01:27.433Z,-6.54
2022-12-20T22:03:57.895Z,-6.65
2022-12-20T22:06:25.712Z,-6.59
2022-12-20T22:08:52.710Z,-6.48
2022-12-20T22:11:19.943Z,-6.64
2022-12-20T22:13:47.427Z,-6.52
2022-12-20T22:16:21.223Z,-6.43
2022-12-20T22:18:50.536Z,-6.52
2022-12-20T22:21:19.607Z,-6.38
2022-12-20T22:23:46.913Z,-6.38
2022-12-20T22:26:16.883Z,-6.41
2022-12-20T22:28:47.357Z,-6.54
2022-12-20T22:31:15.242Z,-6.39
2022-12-20T22:33:42.514Z,-6.39
2022-12-20T22:36:10.779Z,-6.45
2022-12-20T22:38:37.857Z,-6.55
2022-12-20T22:41:07.549Z,-6.43
2022-12-20T22:43:34.521Z,-6.51
2022-12-20T22:48:47.184Z,-6.53
2022-12-20T22:51:18.948Z,-6.47
2022-12-20T22:53:47.678Z,-6.64
2022-12-20T22:56:16.480Z,-6.50
2022-12-20T22:58:43.857Z,-6.53
2022-12-20T23:01:12.824Z,-6.51
2022-12-20T23:03:40.296Z,-6.50
2022-12-20T23:06:10.408Z,-6.49
2022-12-20T23:08:37.589Z,-6.45
2022-12-20T23:11:24.970Z,-6.47
2022-12-20T23:14:10.690Z,-6.52
2022-12-20T23:16:38.642Z,-6.66
2022-12-20T23:19:05.782Z,-6.54
2022-12-20T23:21:51.236Z,-6.55
2022-12-20T23:24:18.241Z,-6.57
2022-12-20T23:26:45.200Z,-6.61
2022-12-20T23:29:14.230Z,-6.65
2022-12-20T23:31:41.793Z,-6.63
2022-12-20T23:34:08.979Z,-6.65
2022-12-20T23:36:35.878Z,-6.63
2022-12-20T23:39:03.691Z,-6.62
2022-12-20T23:41:30.786Z,-6.64
2022-12-20T23:43:57.816Z,-6.49
2022-12-20T23:46:25.408Z,-6.52
2022-12-20T23:48:53.270Z,-6.53
2022-12-20T23:51:21.296Z,-6.51
2022-12-20T23:53:50.517Z,-6.60
2022-12-20T23:56:20.743Z,-6.54
2022-12-20T23:58:53.937Z,-6.47
